createdAt,value
2019-05-22T00:00:52.898Z,9.90
2019-05-22T00:03:27.620Z,9.80
2019-05-22T00:05:58.368Z,9.80
2019-05-22T00:08:29.018Z,9.80
2019-05-22T00:11:02.185Z,9.80
2019-05-22T00:18:35.467Z,9.70
2019-05-22T00:21:07.528Z,9.80
2019-05-22T00:23:38.817Z,9.90
2019-05-22T00:26:11.290Z,9.80
2019-05-22T00:28:43.256Z,9.80
2019-05-22T00:31:16.358Z,9.80
2019-05-22T00:33:47.794Z,9.80
2019-05-22T00:36:19.552Z,9.80
2019-05-22T00:38:50.901Z,9.80
2019-05-22T00:41:23.786Z,9.80
2019-05-22T00:43:57.028Z,9.80
2019-05-22T00:46:28.607Z,9.80
2019-05-22T00:48:59.982Z,9.90
2019-05-22T00:51:46.341Z,9.80
2019-05-22T00:54:33.811Z,9.70
2019-05-22T00:59:59.550Z,9.60
2019-05-22T01:02:30.812Z,9.40
2019-05-22T01:05:02.718Z,9.30
2019-05-22T01:07:39.668Z,9.20
2019-05-22T01:10:12.368Z,9.20
2019-05-22T01:12:46.634Z,9.10
2019-05-22T01:15:20.870Z,9.10
2019-05-22T01:17:51.565Z,9.10
2019-05-22T01:20:24.482Z,9.10
2019-05-22T01:22:57.574Z,9.10
2019-05-22T01:25:29.166Z,9.10
2019-05-22T01:28:00.497Z,9.10
2019-05-22T01:30:40.513Z,9.10
2019-05-22T01:33:14.317Z,9.10
2019-05-22T01:35:53.553Z,9.20
2019-05-22T01:38:25.911Z,9.20
2019-05-22T01:40:59.525Z,9.30
2019-05-22T01:43:32.090Z,9.30
2019-05-22T01:46:03.510Z,9.30
2019-05-22T01:48:38.508Z,9.30
2019-05-22T01:51:11.975Z,9.40
2019-05-22T01:53:43.944Z,9.40
2019-05-22T01:56:17.112Z,9.50
2019-05-22T01:58:47.671Z,9.40
2019-05-22T02:01:22.090Z,9.40
2019-05-22T02:04:00.150Z,9.40
2019-05-22T02:06:31.012Z,9.30
2019-05-22T02:09:27.375Z,9.30
2019-05-22T02:12:08.173Z,9.30
2019-05-22T02:14:59.096Z,9.20
2019-05-22T02:17:33.321Z,9.20
2019-05-22T02:20:07.762Z,9.20
2019-05-22T02:22:42.432Z,9.20
2019-05-22T02:25:13.048Z,9.20
2019-05-22T02:27:44.236Z,9.20
2019-05-22T02:30:15.817Z,9.10
2019-05-22T02:32:48.624Z,9.10
2019-05-22T02:35:19.563Z,9.10
2019-05-22T02:37:50.576Z,9.10
2019-05-22T02:40:28.510Z,9.10
2019-05-22T02:43:00.059Z,9.10
2019-05-22T02:45:32.333Z,9.10
2019-05-22T02:48:06.572Z,9.10
2019-05-22T02:50:37.838Z,9.10
2019-05-22T02:53:11.421Z,9.00
2019-05-22T02:55:42.433Z,9.00
2019-05-22T02:58:13.631Z,9.00
2019-05-22T03:01:05.305Z,9.00
2019-05-22T03:06:12.406Z,8.90
2019-05-22T03:09:10.378Z,8.80
2019-05-22T03:11:43.937Z,8.70
2019-05-22T03:14:15.806Z,8.60
2019-05-22T03:16:56.526Z,8.60
2019-05-22T03:19:42.998Z,8.60
2019-05-22T03:22:24.401Z,8.60
2019-05-22T03:24:57.139Z,8.60
2019-05-22T03:27:49.427Z,8.50
2019-05-22T03:30:42.553Z,8.50
2019-05-22T03:33:13.562Z,8.60
2019-05-22T03:35:47.927Z,8.50
2019-05-22T03:38:20.570Z,8.40
2019-05-22T03:40:53.312Z,8.40
2019-05-22T03:43:25.462Z,8.40
2019-05-22T03:45:59.065Z,8.30
2019-05-22T03:48:35.140Z,8.20
2019-05-22T03:51:12.718Z,8.20
2019-05-22T03:58:46.454Z,8.10
2019-05-22T04:01:17.812Z,7.90
2019-05-22T04:03:48.541Z,8.00
2019-05-22T04:06:20.822Z,8.10
2019-05-22T04:08:52.197Z,8.10
2019-05-22T04:11:25.850Z,8.20
2019-05-22T04:13:57.209Z,8.20
2019-05-22T04:16:28.847Z,8.10
2019-05-22T04:18:59.895Z,8.10
2019-05-22T04:21:32.529Z,8.10
2019-05-22T04:24:03.321Z,8.00
2019-05-22T04:26:34.570Z,8.00
2019-05-22T04:29:05.403Z,8.00
2019-05-22T04:31:53.444Z,8.10
2019-05-22T04:34:24.055Z,8.10
2019-05-22T04:36:55.495Z,8.00
2019-05-22T04:39:27.513Z,8.10
2019-05-22T04:41:59.138Z,8.10
2019-05-22T04:44:29.975Z,8.10
2019-05-22T04:47:01.534Z,8.10
2019-05-22T04:49:32.533Z,8.10
2019-05-22T04:52:04.298Z,8.20
2019-05-22T04:54:34.765Z,8.20
2019-05-22T04:57:06.882Z,8.30
2019-05-22T04:59:39.261Z,8.30
2019-05-22T05:02:10.435Z,8.40
2019-05-22T05:04:41.375Z,8.40
2019-05-22T05:07:12.322Z,8.50
2019-05-22T05:09:44.831Z,8.50
2019-05-22T05:12:15.422Z,8.60
2019-05-22T05:14:45.856Z,8.60
2019-05-22T05:17:16.483Z,8.70
2019-05-22T05:19:47.190Z,8.70
2019-05-22T05:22:21.847Z,8.80
2019-05-22T05:24:55.576Z,8.90
2019-05-22T05:27:24.851Z,9.00
2019-05-22T05:29:55.277Z,9.00
2019-05-22T05:32:26.364Z,9.00
2019-05-22T05:35:05.938Z,9.10
2019-05-22T05:37:36.702Z,9.00
2019-05-22T05:40:29.438Z,9.00
2019-05-22T05:43:00.698Z,9.00
2019-05-22T05:45:32.759Z,8.90
2019-05-22T05:48:05.759Z,9.00
2019-05-22T05:50:40.010Z,9.00
2019-05-22T05:53:16.594Z,9.10
2019-05-22T05:56:18.572Z,9.20
2019-05-22T05:58:49.647Z,9.40
2019-05-22T06:01:45.057Z,9.60
2019-05-22T06:04:17.459Z,9.80
2019-05-22T06:07:26.672Z,10.10
2019-05-22T06:10:40.886Z,10.30
2019-05-22T06:13:12.988Z,10.50
2019-05-22T06:16:31.299Z,10.90
2019-05-22T06:19:02.789Z,11.10
2019-05-22T06:21:33.521Z,11.50
2019-05-22T06:24:25.447Z,11.70
2019-05-22T06:27:29.365Z,12.00
2019-05-22T06:30:06.668Z,12.20
2019-05-22T06:35:32.392Z,12.40
2019-05-22T06:38:24.529Z,13.10
2019-05-22T06:56:38.219Z,13.30
2019-05-22T07:11:41.315Z,14.40
2019-05-22T07:14:12.054Z,15.50
2019-05-22T07:19:12.935Z,16.10
2019-05-22T07:21:43.735Z,16.40
2019-05-22T07:24:14.299Z,16.80
2019-05-22T07:26:45.876Z,17.00
2019-05-22T07:29:17.979Z,17.30
2019-05-22T07:31:48.555Z,17.50
2019-05-22T07:34:19.758Z,17.80
2019-05-22T07:36:50.267Z,18.10
2019-05-22T07:39:21.983Z,18.40
2019-05-22T07:41:52.714Z,19.00
2019-05-22T07:44:23.291Z,19.70
2019-05-22T07:46:54.151Z,20.00
2019-05-22T07:49:24.612Z,20.10
2019-05-22T07:52:01.182Z,19.90
2019-05-22T07:54:28.127Z,20.20
2019-05-22T07:56:59.674Z,20.90
2019-05-22T07:59:30.107Z,21.30
2019-05-22T08:02:03.450Z,21.90
2019-05-22T08:04:34.838Z,22.20
2019-05-22T08:07:07.354Z,22.70
2019-05-22T08:09:38.055Z,22.90
2019-05-22T08:12:11.712Z,23.10
2019-05-22T08:14:42.751Z,23.00
2019-05-22T08:17:13.614Z,23.70
2019-05-22T08:19:44.279Z,24.50
2019-05-22T08:22:15.408Z,24.60
2019-05-22T08:24:45.948Z,24.20
2019-05-22T08:27:18.808Z,24.50
2019-05-22T08:29:49.363Z,24.40
2019-05-22T08:32:20.627Z,24.70
2019-05-22T08:34:51.185Z,25.50
2019-05-22T08:37:25.914Z,26.40
2019-05-22T08:39:56.805Z,27.50
2019-05-22T08:42:28.153Z,28.50
2019-05-22T08:44:59.213Z,29.30
2019-05-22T08:47:31.876Z,29.40
2019-05-22T08:50:03.425Z,29.30
2019-05-22T08:52:33.854Z,29.30
2019-05-22T08:55:06.010Z,29.30
2019-05-22T08:57:37.166Z,27.80
2019-05-22T09:00:12.381Z,27.60
2019-05-22T09:02:41.872Z,28.70
2019-05-22T09:05:12.952Z,28.70
2019-05-22T09:07:45.597Z,28.30
2019-05-22T09:10:19.390Z,29.20
2019-05-22T09:12:50.202Z,30.00
2019-05-22T09:15:20.968Z,31.00
2019-05-22T09:17:51.745Z,30.00
2019-05-22T09:20:24.117Z,29.60
2019-05-22T09:22:54.960Z,30.20
2019-05-22T09:25:28.110Z,30.40
2019-05-22T09:27:58.675Z,30.40
2019-05-22T09:30:29.410Z,30.60
2019-05-22T09:33:00.590Z,30.60
2019-05-22T09:35:31.330Z,31.50
2019-05-22T09:38:02.552Z,32.20
2019-05-22T09:40:33.370Z,32.70
2019-05-22T09:43:05.282Z,33.20
2019-05-22T09:45:37.873Z,32.60
2019-05-22T09:48:09.022Z,31.90
2019-05-22T09:50:39.766Z,31.50
2019-05-22T09:53:10.834Z,31.80
2019-05-22T09:55:41.973Z,31.60
2019-05-22T09:58:12.491Z,30.80
2019-05-22T10:00:42.929Z,31.40
2019-05-22T10:03:13.458Z,31.40
2019-05-22T10:05:44.669Z,31.50
2019-05-22T10:08:15.773Z,32.60
2019-05-22T10:10:47.302Z,33.00
2019-05-22T10:13:17.837Z,33.90
2019-05-22T10:15:48.667Z,34.10
2019-05-22T10:18:19.708Z,34.20
2019-05-22T10:20:50.412Z,33.90
2019-05-22T10:23:21.044Z,33.40
2019-05-22T10:25:53.069Z,33.70
2019-05-22T10:28:23.774Z,34.20
2019-05-22T10:30:55.842Z,35.40
2019-05-22T10:33:27.444Z,34.50
2019-05-22T10:35:58.072Z,33.70
2019-05-22T10:38:28.801Z,32.80
2019-05-22T10:40:59.858Z,32.80
2019-05-22T10:43:30.896Z,32.20
2019-05-22T10:46:01.601Z,31.90
2019-05-22T10:48:32.462Z,33.20
2019-05-22T10:51:02.939Z,33.70
2019-05-22T10:53:34.518Z,32.90
2019-05-22T10:56:05.336Z,32.40
2019-05-22T10:58:36.166Z,32.50
2019-05-22T11:01:06.991Z,33.20
2019-05-22T11:03:38.254Z,34.90
2019-05-22T11:06:08.894Z,36.60
2019-05-22T11:08:40.067Z,36.80
2019-05-22T11:11:11.062Z,36.90
2019-05-22T11:13:57.915Z,36.10
2019-05-22T11:16:14.606Z,35.20
2019-05-22T11:18:45.314Z,35.50
2019-05-22T11:21:16.405Z,35.70
2019-05-22T11:23:52.424Z,33.60
2019-05-22T11:26:19.258Z,34.20
2019-05-22T11:28:50.059Z,36.30
2019-05-22T11:31:21.026Z,36.40
2019-05-22T11:33:51.669Z,35.30
2019-05-22T11:36:22.135Z,35.00
2019-05-22T11:38:52.982Z,34.00
2019-05-22T11:41:23.666Z,32.00
2019-05-22T11:43:54.295Z,32.00
2019-05-22T11:46:25.222Z,32.30
2019-05-22T11:48:55.762Z,32.50
2019-05-22T11:51:26.343Z,32.20
2019-05-22T11:54:08.886Z,33.20
2019-05-22T11:56:28.992Z,34.60
2019-05-22T11:58:59.518Z,36.40
2019-05-22T12:01:30.252Z,36.60
2019-05-22T12:04:01.293Z,35.00
2019-05-22T12:06:32.337Z,35.10
2019-05-22T12:09:05.017Z,37.40
2019-05-22T12:11:37.087Z,38.30
2019-05-22T12:14:09.193Z,39.90
2019-05-22T12:16:41.794Z,39.40
2019-05-22T12:19:13.039Z,37.10
2019-05-22T12:21:43.603Z,34.20
2019-05-22T12:24:27.054Z,32.90
2019-05-22T12:26:46.709Z,32.70
2019-05-22T12:29:17.938Z,33.00
2019-05-22T12:31:49.351Z,35.20
2019-05-22T12:34:20.550Z,36.90
2019-05-22T12:36:51.691Z,37.60
2019-05-22T12:39:23.452Z,37.20
2019-05-22T12:41:54.659Z,38.40
2019-05-22T12:44:25.834Z,38.50
2019-05-22T12:46:56.571Z,36.80
2019-05-22T12:49:28.015Z,33.80
2019-05-22T12:51:58.966Z,32.10
2019-05-22T12:54:45.102Z,33.50
2019-05-22T12:57:04.960Z,34.60
2019-05-22T12:59:36.268Z,35.20
2019-05-22T13:02:07.491Z,36.50
2019-05-22T13:04:38.295Z,36.80
2019-05-22T13:07:09.888Z,37.20
2019-05-22T13:09:40.351Z,37.70
2019-05-22T13:12:12.880Z,35.90
2019-05-22T13:14:44.408Z,36.10
2019-05-22T13:17:15.819Z,37.20
2019-05-22T13:19:48.555Z,36.50
2019-05-22T13:22:23.096Z,35.50
2019-05-22T13:24:53.823Z,33.90
2019-05-22T13:27:24.613Z,34.40
2019-05-22T13:29:56.629Z,34.40
2019-05-22T13:32:28.633Z,35.00
2019-05-22T13:34:59.366Z,34.10
2019-05-22T13:37:31.271Z,34.80
2019-05-22T13:40:02.113Z,35.80
2019-05-22T13:42:32.888Z,35.30
2019-05-22T13:45:05.055Z,35.20
2019-05-22T13:47:36.101Z,35.00
2019-05-22T13:50:09.419Z,33.80
2019-05-22T13:52:43.705Z,32.00
2019-05-22T13:55:14.773Z,30.90
2019-05-22T13:57:45.199Z,29.90
2019-05-22T14:00:19.762Z,29.40
2019-05-22T14:02:50.470Z,28.50
2019-05-22T14:05:21.699Z,27.80
2019-05-22T14:07:52.295Z,28.10
2019-05-22T14:10:27.099Z,28.90
2019-05-22T14:12:58.205Z,31.10
2019-05-22T14:15:47.317Z,32.80
2019-05-22T14:18:01.610Z,32.50
2019-05-22T14:20:32.038Z,31.90
2019-05-22T14:23:02.465Z,31.60
2019-05-22T14:25:34.103Z,30.90
2019-05-22T14:28:05.791Z,30.10
2019-05-22T14:30:36.716Z,29.30
2019-05-22T14:33:07.348Z,28.40
2019-05-22T14:35:48.469Z,27.80
2019-05-22T14:38:12.834Z,28.20
2019-05-22T14:40:43.790Z,28.90
2019-05-22T14:43:14.900Z,30.50
2019-05-22T14:45:45.756Z,32.50
2019-05-22T14:48:17.083Z,32.00
2019-05-22T14:50:47.912Z,30.90
2019-05-22T14:53:18.751Z,30.20
2019-05-22T14:55:50.155Z,28.80
2019-05-22T14:58:20.986Z,27.80
2019-05-22T15:00:52.554Z,27.30
2019-05-22T15:03:23.414Z,27.30
2019-05-22T15:05:54.659Z,28.10
2019-05-22T15:08:25.382Z,28.50
2019-05-22T15:10:56.439Z,29.10
2019-05-22T15:13:27.590Z,30.30
2019-05-22T15:15:58.520Z,31.40
2019-05-22T15:18:29.375Z,30.90
2019-05-22T15:21:02.641Z,30.40
2019-05-22T15:23:34.932Z,29.50
2019-05-22T15:26:05.463Z,29.00
2019-05-22T15:28:36.594Z,29.20
2019-05-22T15:31:07.469Z,29.40
2019-05-22T15:33:39.711Z,29.00
2019-05-22T15:36:12.607Z,28.90
2019-05-22T15:38:45.270Z,28.40
2019-05-22T15:41:16.474Z,27.90
2019-05-22T15:43:52.706Z,27.20
2019-05-22T15:46:20.864Z,26.40
2019-05-22T15:48:53.846Z,25.90
2019-05-22T15:51:28.102Z,25.50
2019-05-22T15:54:01.393Z,25.20
2019-05-22T15:56:35.307Z,24.90
2019-05-22T15:59:08.864Z,24.70
2019-05-22T16:01:40.155Z,24.50
2019-05-22T16:04:12.686Z,24.60
2019-05-22T16:06:44.348Z,24.80
2019-05-22T16:09:17.536Z,24.80
2019-05-22T16:11:51.920Z,24.80
2019-05-22T16:14:25.344Z,24.80
2019-05-22T16:16:56.888Z,24.70
2019-05-22T16:19:29.278Z,24.60
2019-05-22T16:22:03.632Z,24.60
2019-05-22T16:24:36.159Z,24.40
2019-05-22T16:27:08.550Z,23.80
2019-05-22T16:29:40.268Z,23.60
2019-05-22T16:32:12.299Z,23.40
2019-05-22T16:34:42.798Z,23.20
2019-05-22T16:37:14.232Z,23.20
2019-05-22T16:39:44.820Z,23.20
2019-05-22T16:42:15.451Z,23.20
2019-05-22T16:44:46.524Z,23.30
2019-05-22T16:47:18.694Z,23.20
2019-05-22T16:49:51.523Z,23.30
2019-05-22T16:52:23.983Z,23.40
2019-05-22T16:54:54.816Z,23.50
2019-05-22T16:57:27.835Z,23.60
2019-05-22T17:00:00.460Z,23.80
2019-05-22T17:02:33.737Z,23.70
2019-05-22T17:05:05.194Z,23.70
2019-05-22T17:07:36.575Z,23.50
2019-05-22T17:10:07.566Z,23.50
2019-05-22T17:12:39.316Z,23.30
2019-05-22T17:15:14.637Z,23.00
2019-05-22T17:17:46.475Z,22.90
2019-05-22T17:20:20.999Z,23.00
2019-05-22T17:22:51.949Z,23.00
2019-05-22T17:25:22.574Z,22.80
2019-05-22T17:27:53.101Z,22.70
2019-05-22T17:30:25.257Z,22.50
2019-05-22T17:32:57.329Z,22.50
2019-05-22T17:35:28.269Z,22.30
2019-05-22T17:37:59.387Z,22.30
2019-05-22T17:40:30.802Z,22.30
2019-05-22T17:43:02.735Z,22.30
2019-05-22T17:45:35.610Z,22.20
2019-05-22T17:48:06.957Z,22.20
2019-05-22T17:50:38.377Z,22.10
2019-05-22T17:53:09.451Z,21.90
2019-05-22T17:55:40.492Z,21.90
2019-05-22T17:58:11.784Z,21.70
2019-05-22T18:00:46.158Z,21.60
2019-05-22T18:03:17.044Z,21.50
2019-05-22T18:05:47.845Z,21.50
2019-05-22T18:08:18.599Z,21.60
2019-05-22T18:10:51.143Z,21.60
2019-05-22T18:13:22.378Z,21.70
2019-05-22T18:15:52.816Z,21.70
2019-05-22T18:18:23.347Z,21.70
2019-05-22T18:20:54.759Z,21.60
2019-05-22T18:23:25.459Z,21.60
2019-05-22T18:25:55.842Z,21.60
2019-05-22T18:28:27.079Z,21.60
2019-05-22T18:30:57.529Z,21.60
2019-05-22T18:33:28.050Z,21.50
2019-05-22T18:35:58.612Z,21.50
2019-05-22T18:38:29.116Z,21.40
2019-05-22T18:40:59.779Z,21.30
2019-05-22T18:43:51.207Z,21.20
2019-05-22T18:46:21.866Z,21.10
2019-05-22T18:48:52.564Z,21.10
2019-05-22T18:51:23.475Z,21.00
2019-05-22T18:53:53.896Z,21.00
2019-05-22T18:56:24.661Z,20.90
2019-05-22T18:58:55.884Z,20.80
2019-05-22T19:01:26.410Z,20.80
2019-05-22T19:03:57.154Z,20.70
2019-05-22T19:06:30.716Z,20.60
2019-05-22T19:09:00.151Z,20.50
2019-05-22T19:11:30.782Z,20.40
2019-05-22T19:14:01.207Z,20.30
2019-05-22T19:16:31.963Z,20.30
2019-05-22T19:19:02.495Z,20.10
2019-05-22T19:21:33.151Z,20.10
2019-05-22T19:24:04.176Z,19.90
2019-05-22T19:26:34.980Z,19.90
2019-05-22T19:29:06.042Z,19.80
2019-05-22T19:31:36.723Z,19.70
2019-05-22T19:34:07.880Z,19.50
2019-05-22T19:36:38.325Z,19.40
2019-05-22T19:39:10.132Z,19.30
2019-05-22T19:41:41.074Z,19.20
2019-05-22T19:44:12.691Z,19.00
2019-05-22T19:46:43.209Z,18.90
2019-05-22T19:49:14.114Z,18.80
2019-05-22T19:51:45.503Z,18.70
2019-05-22T19:54:16.641Z,18.60
2019-05-22T19:56:47.959Z,18.50
2019-05-22T19:59:19.086Z,18.40
2019-05-22T20:01:50.366Z,18.30
2019-05-22T20:04:21.319Z,18.20
2019-05-22T20:06:52.274Z,18.10
2019-05-22T20:09:23.098Z,18.00
2019-05-22T20:11:54.409Z,17.90
2019-05-22T20:14:26.206Z,17.80
2019-05-22T20:16:56.834Z,17.70
2019-05-22T20:19:27.668Z,17.70
2019-05-22T20:22:00.471Z,17.60
2019-05-22T20:24:30.369Z,17.50
2019-05-22T20:27:00.894Z,17.40
2019-05-22T20:29:31.530Z,17.50
2019-05-22T20:32:02.057Z,17.40
2019-05-22T20:34:32.788Z,17.40
2019-05-22T20:37:03.932Z,17.30
2019-05-22T20:39:36.279Z,17.20
2019-05-22T20:42:07.771Z,17.20
2019-05-22T20:44:40.037Z,17.10
2019-05-22T20:47:11.354Z,17.00
2019-05-22T20:49:43.960Z,16.90
2019-05-22T20:52:14.692Z,16.80
2019-05-22T20:54:45.218Z,16.70
2019-05-22T20:57:19.570Z,16.70
2019-05-22T20:59:48.633Z,16.70
2019-05-22T21:02:20.832Z,16.70
2019-05-22T21:04:53.959Z,16.60
2019-05-22T21:07:31.585Z,16.60
2019-05-22T21:10:03.947Z,16.60
2019-05-22T21:12:36.380Z,16.50
2019-05-22T21:15:08.646Z,16.40
2019-05-22T21:17:40.690Z,16.40
2019-05-22T21:20:13.796Z,16.30
2019-05-22T21:22:45.976Z,16.30
2019-05-22T21:25:17.565Z,16.20
2019-05-22T21:27:49.232Z,16.20
2019-05-22T21:30:20.879Z,16.10
2019-05-22T21:32:51.315Z,16.10
2019-05-22T21:35:22.792Z,16.00
2019-05-22T21:37:54.116Z,16.00
2019-05-22T21:40:25.421Z,16.00
2019-05-22T21:42:56.431Z,16.00
2019-05-22T21:45:27.794Z,16.00
2019-05-22T21:47:58.289Z,15.90
2019-05-22T21:50:31.318Z,16.00
2019-05-22T21:53:02.514Z,15.90
2019-05-22T21:55:33.451Z,15.90
2019-05-22T21:58:04.796Z,15.80
2019-05-22T22:00:59.934Z,15.80
2019-05-22T22:03:35.146Z,15.80
2019-05-22T22:06:06.571Z,15.70
2019-05-22T22:08:37.331Z,15.70
2019-05-22T22:11:08.913Z,15.60
2019-05-22T22:13:39.722Z,15.70
2019-05-22T22:16:11.276Z,15.60
2019-05-22T22:18:41.875Z,15.50
2019-05-22T22:21:13.757Z,15.40
2019-05-22T22:23:44.755Z,15.40
2019-05-22T22:26:25.312Z,15.30
2019-05-22T22:28:48.429Z,15.20
2019-05-22T22:31:22.027Z,15.20
2019-05-22T22:33:57.270Z,15.10
2019-05-22T22:41:28.220Z,15.10
2019-05-22T22:43:59.341Z,14.90
2019-05-22T22:46:49.064Z,14.80
2019-05-22T22:49:21.643Z,14.80
2019-05-22T22:51:53.373Z,14.80
2019-05-22T22:54:24.831Z,14.80
2019-05-22T22:56:55.780Z,14.70
2019-05-22T22:59:26.718Z,14.70
2019-05-22T23:01:59.964Z,14.70
2019-05-22T23:04:30.966Z,14.60
2019-05-22T23:07:07.978Z,14.60
2019-05-22T23:09:44.342Z,14.60
2019-05-22T23:12:16.887Z,14.50
2019-05-22T23:14:53.425Z,14.40
2019-05-22T23:17:25.806Z,14.20
2019-05-22T23:19:55.274Z,14.10
2019-05-22T23:22:24.987Z,14.10
2019-05-22T23:24:57.988Z,14.00
2019-05-22T23:27:29.367Z,13.90
2019-05-22T23:30:00.617Z,13.80
2019-05-22T23:32:31.771Z,13.70
2019-05-22T23:35:03.310Z,13.70
2019-05-22T23:37:34.363Z,13.60
2019-05-22T23:40:06.742Z,13.60
2019-05-22T23:42:41.655Z,13.60
2019-05-22T23:45:15.433Z,13.60
2019-05-22T23:48:09.261Z,13.60
2019-05-22T23:50:41.931Z,13.60
2019-05-22T23:53:13.706Z,13.50
2019-05-22T23:55:46.161Z,13.50
2019-05-22T23:58:20.292Z,13.40
